createdAt,value
2023-03-24T00:01:08.416Z,3.85
2023-03-24T00:03:36.470Z,3.97
2023-03-24T00:06:09.261Z,3.53
2023-03-24T00:08:37.411Z,4.28
2023-03-24T00:11:09.603Z,4.75
2023-03-24T00:13:42.903Z,6.10
2023-03-24T00:16:15.044Z,5.32
2023-03-24T00:18:42.046Z,3.28
2023-03-24T00:21:11.623Z,3.10
2023-03-24T00:23:42.818Z,3.90
2023-03-24T00:26:16.682Z,3.78
2023-03-24T00:28:49.721Z,4.22
2023-03-24T00:31:18.847Z,3.45
2023-03-24T00:33:51.377Z,3.53
2023-03-24T00:36:24.409Z,4.13
2023-03-24T00:38:56.309Z,3.88
2023-03-24T00:41:25.008Z,3.58
2023-03-24T00:43:57.001Z,2.95
2023-03-24T00:46:29.692Z,5.70
2023-03-24T00:49:02.782Z,3.20
2023-03-24T00:51:38.097Z,3.35
2023-03-24T00:54:07.362Z,3.47
2023-03-24T00:56:37.783Z,5.70
2023-03-24T00:59:10.044Z,4.20
2023-03-24T01:01:40.976Z,6.28
2023-03-24T01:04:10.607Z,4.80
2023-03-24T01:06:38.386Z,8.60
2023-03-24T01:09:12.285Z,4.53
2023-03-24T01:11:41.882Z,8.00
2023-03-24T01:14:12.266Z,4.80
2023-03-24T01:16:40.355Z,4.47
2023-03-24T01:19:09.840Z,3.55
2023-03-24T01:21:40.123Z,2.87
2023-03-24T01:24:09.691Z,3.85
2023-03-24T01:26:39.345Z,2.45
2023-03-24T01:29:06.338Z,3.00
2023-03-24T01:31:35.870Z,2.75
2023-03-24T01:34:03.060Z,2.45
2023-03-24T01:36:30.494Z,2.63
2023-03-24T01:39:01.084Z,4.00
2023-03-24T01:41:36.387Z,4.70
2023-03-24T01:44:27.494Z,2.65
2023-03-24T01:46:56.154Z,3.97
2023-03-24T01:49:29.910Z,3.05
2023-03-24T01:52:03.616Z,3.13
2023-03-24T01:54:43.300Z,2.65
2023-03-24T01:57:21.923Z,3.72
2023-03-24T01:59:52.151Z,4.10
2023-03-24T02:02:22.180Z,4.72
2023-03-24T02:04:54.190Z,4.50
2023-03-24T02:07:32.555Z,4.55
2023-03-24T02:10:01.258Z,3.42
2023-03-24T02:12:28.244Z,4.82
2023-03-24T02:14:55.347Z,3.83
2023-03-24T02:17:54.621Z,3.67
2023-03-24T02:20:39.058Z,4.32
2023-03-24T02:24:07.438Z,3.50
2023-03-24T02:26:45.363Z,2.72
2023-03-24T02:29:24.130Z,2.58
2023-03-24T02:31:59.854Z,3.42
2023-03-24T02:34:36.034Z,2.38
2023-03-24T02:37:36.238Z,2.92
2023-03-24T02:40:15.463Z,3.92
2023-03-24T02:43:22.340Z,2.45
2023-03-24T02:46:13.712Z,4.63
2023-03-24T02:49:09.741Z,3.38
2023-03-24T02:52:00.557Z,3.42
2023-03-24T02:54:44.437Z,4.25
2023-03-24T02:57:36.452Z,3.85
2023-03-24T03:00:18.442Z,2.75
2023-03-24T03:02:52.154Z,3.50
2023-03-24T03:05:32.545Z,4.47
2023-03-24T03:08:04.245Z,3.10
2023-03-24T03:10:38.697Z,3.05
2023-03-24T03:13:17.614Z,3.65
2023-03-24T03:15:50.015Z,3.70
2023-03-24T03:18:39.319Z,4.07
2023-03-24T03:21:13.523Z,3.33
2023-03-24T03:23:56.559Z,3.10
2023-03-24T03:26:32.721Z,3.95
2023-03-24T03:29:06.657Z,3.55
2023-03-24T03:31:49.603Z,5.28
2023-03-24T03:34:37.619Z,3.58
2023-03-24T03:37:19.234Z,4.25
2023-03-24T03:40:02.266Z,2.35
2023-03-24T03:42:34.223Z,2.38
2023-03-24T03:45:01.492Z,3.67
2023-03-24T03:47:28.459Z,2.35
2023-03-24T03:49:58.408Z,1.85
2023-03-24T03:52:25.634Z,1.95
2023-03-24T03:54:54.865Z,2.35
2023-03-24T03:57:24.423Z,3.58
2023-03-24T03:59:56.595Z,2.90
2023-03-24T04:02:44.526Z,3.28
2023-03-24T04:05:26.061Z,2.67
2023-03-24T04:08:26.401Z,2.28
2023-03-24T04:10:59.229Z,3.20
2023-03-24T04:13:51.789Z,3.00
2023-03-24T04:16:33.177Z,4.85
2023-03-24T04:19:24.152Z,6.00
2023-03-24T04:22:22.264Z,3.28
2023-03-24T04:24:57.636Z,3.13
2023-03-24T04:28:05.452Z,2.60
2023-03-24T04:30:48.204Z,2.75
2023-03-24T04:33:39.130Z,3.17
2023-03-24T04:36:32.303Z,3.17
2023-03-24T04:39:01.829Z,2.53
2023-03-24T04:41:30.474Z,2.63
2023-03-24T04:43:58.117Z,2.40
2023-03-24T04:46:25.988Z,3.00
2023-03-24T04:48:55.646Z,3.08
2023-03-24T04:51:25.202Z,3.95
2023-03-24T04:53:52.148Z,3.33
2023-03-24T04:56:36.220Z,4.07
2023-03-24T04:59:03.527Z,2.53
2023-03-24T05:01:30.662Z,3.63
2023-03-24T05:03:59.012Z,2.53
2023-03-24T05:06:28.491Z,3.63
2023-03-24T05:08:57.711Z,3.10
2023-03-24T05:11:28.201Z,2.65
2023-03-24T05:13:59.671Z,2.10
2023-03-24T05:18:53.412Z,2.22
2023-03-24T05:21:20.721Z,2.58
2023-03-24T05:23:49.959Z,2.65
2023-03-24T05:26:16.828Z,3.00
2023-03-24T05:28:43.859Z,2.33
2023-03-24T05:31:10.867Z,2.53
2023-03-24T05:33:42.360Z,2.22
2023-03-24T05:36:10.102Z,3.50
2023-03-24T05:38:37.091Z,4.43
2023-03-24T05:41:06.931Z,3.05
2023-03-24T05:43:33.926Z,2.28
2023-03-24T05:46:01.071Z,2.47
2023-03-24T05:48:28.048Z,3.45
2023-03-24T05:50:57.351Z,3.42
2023-03-24T05:53:24.211Z,2.58
2023-03-24T05:55:53.773Z,2.25
2023-03-24T05:58:21.443Z,3.00
2023-03-24T06:00:50.658Z,5.63
2023-03-24T06:03:19.862Z,3.33
2023-03-24T06:05:52.690Z,2.53
2023-03-24T06:08:21.693Z,2.83
2023-03-24T06:10:49.533Z,2.92
2023-03-24T06:13:16.371Z,3.25
2023-03-24T06:15:48.182Z,2.25
2023-03-24T06:18:15.455Z,5.07
2023-03-24T06:20:44.899Z,4.53
2023-03-24T06:23:12.574Z,5.53
2023-03-24T06:25:44.685Z,6.82
2023-03-24T06:28:12.308Z,10.75
2023-03-24T06:30:44.008Z,5.80
2023-03-24T06:35:38.447Z,3.88
2023-03-24T06:38:07.010Z,2.25
2023-03-24T06:40:34.471Z,2.97
2023-03-24T06:43:01.545Z,2.85
2023-03-24T06:45:30.161Z,2.65
2023-03-24T06:47:58.158Z,3.33
2023-03-24T06:50:33.267Z,3.30
2023-03-24T06:53:05.068Z,2.10
2023-03-24T06:55:32.468Z,2.63
2023-03-24T06:58:04.371Z,2.15
2023-03-24T07:00:31.453Z,3.78
2023-03-24T07:02:58.573Z,2.60
2023-03-24T07:05:25.494Z,2.08
2023-03-24T07:08:27.833Z,2.13
2023-03-24T07:10:44.423Z,2.85
2023-03-24T07:13:11.594Z,2.03
2023-03-24T07:15:38.585Z,2.22
2023-03-24T07:18:05.796Z,2.58
2023-03-24T07:20:34.920Z,2.30
2023-03-24T07:23:04.034Z,3.08
2023-03-24T07:25:33.535Z,2.92
2023-03-24T07:28:02.613Z,1.85
2023-03-24T07:30:39.724Z,1.95
2023-03-24T07:33:13.959Z,1.80
2023-03-24T07:35:41.774Z,2.17
2023-03-24T07:38:10.605Z,2.65
2023-03-24T07:40:37.679Z,2.08
2023-03-24T07:43:06.602Z,1.50
2023-03-24T07:45:34.093Z,1.90
2023-03-24T07:48:03.249Z,2.28
2023-03-24T07:50:31.348Z,2.42
2023-03-24T07:53:00.203Z,2.95
2023-03-24T07:55:27.552Z,1.58
2023-03-24T07:57:54.543Z,1.92
2023-03-24T08:00:24.791Z,1.98
2023-03-24T08:02:53.720Z,2.40
2023-03-24T08:05:22.748Z,2.47
2023-03-24T08:07:55.816Z,2.45
2023-03-24T08:10:30.757Z,1.80
2023-03-24T08:12:58.818Z,1.25
2023-03-24T08:15:28.763Z,1.13
2023-03-24T08:17:56.846Z,1.38
2023-03-24T08:20:27.327Z,1.73
2023-03-24T08:22:54.837Z,1.33
2023-03-24T08:25:27.843Z,1.20
2023-03-24T08:27:54.960Z,1.20
2023-03-24T08:30:26.014Z,2.22
2023-03-24T08:32:56.572Z,1.58
2023-03-24T08:35:45.516Z,0.95
2023-03-24T08:38:15.681Z,1.20
2023-03-24T08:40:44.458Z,0.90
2023-03-24T08:43:15.806Z,1.20
2023-03-24T08:45:43.105Z,0.95
2023-03-24T08:48:10.534Z,1.08
2023-03-24T08:50:41.792Z,1.92
2023-03-24T08:53:11.531Z,1.48
2023-03-24T08:55:41.747Z,1.30
2023-03-24T08:58:20.281Z,1.38
2023-03-24T09:00:48.766Z,2.03
2023-03-24T09:03:22.283Z,2.85
2023-03-24T09:05:50.363Z,3.80
2023-03-24T09:08:19.187Z,1.92
2023-03-24T09:10:47.027Z,1.50
2023-03-24T09:13:14.822Z,1.63
2023-03-24T09:15:52.873Z,1.48
2023-03-24T09:18:21.777Z,2.78
2023-03-24T09:20:52.389Z,1.63
2023-03-24T09:23:20.933Z,2.70
2023-03-24T09:25:56.663Z,1.30
2023-03-24T09:28:23.908Z,1.95
2023-03-24T09:30:51.634Z,2.33
2023-03-24T09:33:18.780Z,1.40
2023-03-24T09:35:46.046Z,1.50
2023-03-24T09:38:15.354Z,1.45
2023-03-24T09:40:43.518Z,1.73
2023-03-24T09:43:46.214Z,1.30
2023-03-24T09:46:33.746Z,1.00
2023-03-24T09:49:00.893Z,1.25
2023-03-24T09:51:45.494Z,1.20
2023-03-24T09:54:38.697Z,4.75
2023-03-24T09:57:15.684Z,1.40
2023-03-24T09:59:42.676Z,1.73
2023-03-24T10:02:24.375Z,1.33
2023-03-24T10:07:34.574Z,1.55
2023-03-24T10:10:01.894Z,1.20
2023-03-24T10:12:48.563Z,1.10
2023-03-24T10:15:38.436Z,1.92
2023-03-24T10:18:29.005Z,1.35
2023-03-24T10:21:07.400Z,1.77
2023-03-24T10:23:48.444Z,1.00
2023-03-24T10:26:53.099Z,1.25
2023-03-24T10:29:36.275Z,0.75
2023-03-24T10:32:12.467Z,0.70
2023-03-24T10:34:44.531Z,0.80
2023-03-24T10:37:15.228Z,0.85
2023-03-24T10:39:44.994Z,0.70
2023-03-24T10:42:25.689Z,0.82
2023-03-24T10:44:53.089Z,0.90
2023-03-24T10:47:32.984Z,1.08
2023-03-24T10:50:14.863Z,1.40
2023-03-24T10:52:46.831Z,0.80
2023-03-24T10:55:23.628Z,2.47
2023-03-24T10:57:58.397Z,0.70
2023-03-24T11:00:31.831Z,1.70
2023-03-24T11:03:24.742Z,2.13
2023-03-24T11:06:03.044Z,0.60
2023-03-24T11:08:42.225Z,1.13
2023-03-24T11:11:24.445Z,0.75
2023-03-24T11:14:03.114Z,1.13
2023-03-24T11:16:39.572Z,0.65
2023-03-24T11:19:22.635Z,0.70
2023-03-24T11:21:52.992Z,1.15
2023-03-24T11:24:20.762Z,2.20
2023-03-24T11:27:01.867Z,2.67
2023-03-24T11:29:32.816Z,1.92
2023-03-24T11:32:03.392Z,0.80
2023-03-24T11:34:34.332Z,0.95
2023-03-24T11:37:23.035Z,0.82
2023-03-24T11:40:23.649Z,1.33
2023-03-24T11:43:14.289Z,0.90
2023-03-24T11:45:46.375Z,1.55
2023-03-24T11:48:42.238Z,0.80
2023-03-24T11:51:12.787Z,1.75
2023-03-24T11:53:48.526Z,1.43
2023-03-24T11:56:42.512Z,1.10
2023-03-24T11:59:52.324Z,1.30
2023-03-24T12:02:42.194Z,1.35
2023-03-24T12:05:49.637Z,0.82
2023-03-24T12:08:56.064Z,0.73
2023-03-24T12:11:55.486Z,0.65
2023-03-24T12:14:31.910Z,1.38
2023-03-24T12:17:15.450Z,0.98
2023-03-24T12:20:08.101Z,1.40
2023-03-24T12:22:59.966Z,2.13
2023-03-24T12:25:40.247Z,1.15
2023-03-24T12:28:10.177Z,1.80
2023-03-24T12:30:59.608Z,1.20
2023-03-24T12:33:29.456Z,0.57
2023-03-24T12:36:31.732Z,0.60
2023-03-24T12:39:21.145Z,1.67
2023-03-24T12:42:07.196Z,0.80
2023-03-24T12:45:20.641Z,1.38
2023-03-24T12:47:57.086Z,0.70
2023-03-24T12:51:13.267Z,1.13
2023-03-24T12:54:08.059Z,1.67
2023-03-24T12:56:51.575Z,1.85
2023-03-24T12:59:26.202Z,2.00
2023-03-24T13:02:18.484Z,0.90
2023-03-24T13:04:49.665Z,0.85
2023-03-24T13:07:25.637Z,1.48
2023-03-24T13:09:59.445Z,0.80
2023-03-24T13:12:33.566Z,0.75
2023-03-24T13:15:13.330Z,0.50
2023-03-24T13:17:49.171Z,0.75
2023-03-24T13:20:46.287Z,0.50
2023-03-24T13:23:41.216Z,3.13
2023-03-24T13:26:16.726Z,2.75
2023-03-24T13:28:59.038Z,0.70
2023-03-24T13:31:31.825Z,0.40
2023-03-24T13:34:00.819Z,0.40
2023-03-24T13:36:40.906Z,0.50
2023-03-24T13:39:17.550Z,0.50
2023-03-24T13:41:51.252Z,0.70
2023-03-24T13:44:21.015Z,0.50
2023-03-24T13:47:14.695Z,0.45
2023-03-24T13:50:00.574Z,0.30
2023-03-24T13:52:38.326Z,1.00
2023-03-24T13:55:28.033Z,0.45
2023-03-24T13:58:05.196Z,0.50
2023-03-24T14:01:08.977Z,0.80
2023-03-24T14:03:39.239Z,0.20
2023-03-24T14:06:09.456Z,0.45
2023-03-24T14:09:01.638Z,0.38
2023-03-24T14:11:31.974Z,0.50
2023-03-24T14:14:13.990Z,0.52
2023-03-24T14:17:16.653Z,0.45
2023-03-24T14:20:10.920Z,0.30
2023-03-24T14:22:48.227Z,0.30
2023-03-24T14:25:17.630Z,0.40
2023-03-24T14:27:54.269Z,0.57
2023-03-24T14:30:34.400Z,0.47
2023-03-24T14:33:04.909Z,0.38
2023-03-24T14:35:46.541Z,0.70
2023-03-24T14:38:17.610Z,0.35
2023-03-24T14:40:49.625Z,0.52
2023-03-24T14:43:30.758Z,1.33
2023-03-24T14:46:09.361Z,0.93
2023-03-24T14:48:59.040Z,0.57
2023-03-24T14:51:36.912Z,2.65
2023-03-24T14:54:16.487Z,1.10
2023-03-24T14:56:49.962Z,0.77
2023-03-24T14:59:39.951Z,0.93
2023-03-24T15:02:39.765Z,0.50
2023-03-24T15:05:30.479Z,0.43
2023-03-24T15:08:17.905Z,0.70
2023-03-24T15:11:01.124Z,0.90
2023-03-24T15:13:43.871Z,0.68
2023-03-24T15:16:10.752Z,0.52
2023-03-24T15:19:00.755Z,1.08
2023-03-24T15:21:37.320Z,1.00
2023-03-24T15:24:22.890Z,0.73
2023-03-24T15:27:26.811Z,0.63
2023-03-24T15:29:58.931Z,0.30
2023-03-24T15:32:32.560Z,0.55
2023-03-24T15:35:05.813Z,0.60
2023-03-24T15:37:43.033Z,0.50
2023-03-24T15:40:30.790Z,0.75
2023-03-24T15:43:18.269Z,0.73
2023-03-24T15:45:57.914Z,0.93
2023-03-24T15:48:35.479Z,0.70
2023-03-24T15:51:09.318Z,0.40
2023-03-24T15:53:45.803Z,0.45
2023-03-24T15:56:19.402Z,0.50
2023-03-24T15:58:57.523Z,0.50
2023-03-24T16:01:36.529Z,0.70
2023-03-24T16:04:18.153Z,0.50
2023-03-24T16:06:54.413Z,1.23
2023-03-24T16:09:27.236Z,1.42
2023-03-24T16:11:54.415Z,1.20
2023-03-24T16:14:27.461Z,1.20
2023-03-24T16:17:01.145Z,0.65
2023-03-24T16:19:30.636Z,1.05
2023-03-24T16:21:59.975Z,1.67
2023-03-24T16:24:29.521Z,0.80
2023-03-24T16:27:01.365Z,2.05
2023-03-24T16:29:30.641Z,0.80
2023-03-24T16:31:58.732Z,1.17
2023-03-24T16:34:25.940Z,1.17
2023-03-24T16:36:54.653Z,2.10
2023-03-24T16:39:26.046Z,1.33
2023-03-24T16:41:56.693Z,1.00
2023-03-24T16:44:24.549Z,0.87
2023-03-24T16:46:53.877Z,0.65
2023-03-24T16:49:24.198Z,2.25
2023-03-24T16:51:54.076Z,2.08
2023-03-24T16:54:23.277Z,3.70
2023-03-24T16:56:54.948Z,1.45
2023-03-24T16:59:24.637Z,1.67
2023-03-24T17:01:53.122Z,1.45
2023-03-24T17:04:24.667Z,1.98
2023-03-24T17:09:22.730Z,1.75
2023-03-24T17:11:56.266Z,1.73
2023-03-24T17:14:25.715Z,1.55
2023-03-24T17:16:53.682Z,1.23
2023-03-24T17:19:27.058Z,1.85
2023-03-24T17:22:03.789Z,1.63
2023-03-24T17:24:39.377Z,1.67
2023-03-24T17:27:21.332Z,1.90
2023-03-24T17:29:53.359Z,2.30
2023-03-24T17:32:32.089Z,4.32
2023-03-24T17:35:06.117Z,2.33
2023-03-24T17:37:33.055Z,2.40
2023-03-24T17:40:06.755Z,1.92
2023-03-24T17:42:36.665Z,1.50
2023-03-24T17:45:05.871Z,3.53
2023-03-24T17:47:33.302Z,3.15
2023-03-24T17:50:04.642Z,2.00
2023-03-24T17:52:33.952Z,1.95
2023-03-24T17:55:04.473Z,1.38
2023-03-24T17:57:36.855Z,1.67
2023-03-24T18:00:06.604Z,1.45
2023-03-24T18:02:33.682Z,1.98
2023-03-24T18:05:00.688Z,1.88
2023-03-24T18:07:27.719Z,2.58
2023-03-24T18:09:54.802Z,1.35
2023-03-24T18:12:24.627Z,2.55
2023-03-24T18:14:51.796Z,1.58
2023-03-24T18:17:19.065Z,1.38
2023-03-24T18:19:48.634Z,1.75
2023-03-24T18:22:15.777Z,2.15
2023-03-24T18:24:42.864Z,3.42
2023-03-24T18:27:12.369Z,3.53
2023-03-24T18:29:39.928Z,3.97
2023-03-24T18:32:09.570Z,2.45
2023-03-24T18:34:38.863Z,1.30
2023-03-24T18:37:11.446Z,3.53
2023-03-24T18:39:40.677Z,2.88
2023-03-24T18:42:08.263Z,1.23
2023-03-24T18:44:35.609Z,1.92
2023-03-24T18:47:07.380Z,1.33
2023-03-24T18:49:36.857Z,2.55
2023-03-24T18:52:08.437Z,1.35
2023-03-24T18:54:39.195Z,1.67
2023-03-24T18:57:06.412Z,1.20
2023-03-24T18:59:33.485Z,1.42
2023-03-24T19:02:00.704Z,3.65
2023-03-24T19:04:29.883Z,1.13
2023-03-24T19:07:00.871Z,1.70
2023-03-24T19:09:31.684Z,1.60
2023-03-24T19:12:01.738Z,1.23
2023-03-24T19:14:32.225Z,1.20
2023-03-24T19:17:02.046Z,1.52
2023-03-24T19:19:35.849Z,2.92
2023-03-24T19:22:09.494Z,3.15
2023-03-24T19:24:38.806Z,2.90
2023-03-24T19:27:08.491Z,1.70
2023-03-24T19:29:38.084Z,2.20
2023-03-24T19:32:10.634Z,2.65
2023-03-24T19:34:41.484Z,2.22
2023-03-24T19:37:10.891Z,2.03
2023-03-24T19:39:40.367Z,3.15
2023-03-24T19:42:08.729Z,2.67
2023-03-24T19:44:38.471Z,3.20
2023-03-24T19:47:08.217Z,2.50
2023-03-24T19:49:37.737Z,3.58
2023-03-24T19:52:07.428Z,4.03
2023-03-24T19:54:35.552Z,4.20
2023-03-24T19:57:04.053Z,6.00
2023-03-24T19:59:32.529Z,4.10
2023-03-24T20:01:59.938Z,4.30
2023-03-24T20:04:27.507Z,2.22
2023-03-24T20:06:58.709Z,3.55
2023-03-24T20:09:27.136Z,7.30
2023-03-24T20:11:57.667Z,3.50
2023-03-24T20:14:24.679Z,2.60
2023-03-24T20:16:51.696Z,3.05
2023-03-24T20:19:30.349Z,3.25
2023-03-24T20:22:02.276Z,2.03
2023-03-24T20:24:31.953Z,2.17
2023-03-24T20:27:03.030Z,2.17
2023-03-24T20:29:37.129Z,1.88
2023-03-24T20:32:06.318Z,1.67
2023-03-24T20:34:33.751Z,2.10
2023-03-24T20:37:10.867Z,1.65
2023-03-24T20:42:49.929Z,2.70
2023-03-24T20:45:17.174Z,2.28
2023-03-24T20:47:47.172Z,2.95
2023-03-24T20:50:15.721Z,2.70
2023-03-24T20:52:46.466Z,2.00
2023-03-24T20:55:17.116Z,3.53
2023-03-24T20:57:44.361Z,1.63
2023-03-24T21:00:17.723Z,2.42
2023-03-24T21:02:51.493Z,2.92
2023-03-24T21:05:21.062Z,2.00
2023-03-24T21:07:49.338Z,2.63
2023-03-24T21:10:20.508Z,2.50
2023-03-24T21:12:53.053Z,1.98
2023-03-24T21:15:27.664Z,2.97
2023-03-24T21:17:55.584Z,3.50
2023-03-24T21:20:27.939Z,4.22
2023-03-24T21:22:55.804Z,4.90
2023-03-24T21:25:32.470Z,4.10
2023-03-24T21:28:00.920Z,2.95
2023-03-24T21:30:29.637Z,4.35
2023-03-24T21:33:01.484Z,2.75
2023-03-24T21:35:31.586Z,2.45
2023-03-24T21:38:01.319Z,2.28
2023-03-24T21:40:31.915Z,4.15
2023-03-24T21:43:07.017Z,2.53
2023-03-24T21:45:40.607Z,2.22
2023-03-24T21:48:14.371Z,2.85
2023-03-24T21:50:46.846Z,2.03
2023-03-24T21:53:15.616Z,3.17
2023-03-24T21:56:23.919Z,3.40
2023-03-24T21:58:55.814Z,3.83
2023-03-24T22:01:28.225Z,2.10
2023-03-24T22:03:58.835Z,1.92
2023-03-24T22:06:29.808Z,2.97
2023-03-24T22:09:06.423Z,2.33
2023-03-24T22:11:37.644Z,2.53
2023-03-24T22:14:16.350Z,2.38
2023-03-24T22:16:43.521Z,2.47
2023-03-24T22:19:16.689Z,2.00
2023-03-24T22:21:44.047Z,2.28
2023-03-24T22:24:11.044Z,2.65
2023-03-24T22:26:38.002Z,2.25
2023-03-24T22:29:05.020Z,1.42
2023-03-24T22:31:32.010Z,3.55
2023-03-24T22:33:58.952Z,1.30
2023-03-24T22:36:25.877Z,4.53
2023-03-24T22:38:52.961Z,3.60
2023-03-24T22:41:22.511Z,2.13
2023-03-24T22:43:52.402Z,2.17
2023-03-24T22:46:19.333Z,2.63
2023-03-24T22:48:46.489Z,3.28
2023-03-24T22:51:19.009Z,6.32
2023-03-24T22:53:47.036Z,5.43
2023-03-24T22:56:15.547Z,2.38
2023-03-24T22:58:42.498Z,3.13
2023-03-24T23:01:11.703Z,3.60
2023-03-24T23:03:38.646Z,5.45
2023-03-24T23:06:09.987Z,3.10
2023-03-24T23:08:40.168Z,4.20
2023-03-24T23:11:08.755Z,3.60
2023-03-24T23:13:38.904Z,4.80
2023-03-24T23:16:07.404Z,3.40
2023-03-24T23:18:34.459Z,2.50
2023-03-24T23:21:16.882Z,2.78
2023-03-24T23:23:44.287Z,2.10
2023-03-24T23:26:25.601Z,2.55
2023-03-24T23:28:53.574Z,3.90
2023-03-24T23:31:25.052Z,2.03
2023-03-24T23:36:26.331Z,1.42
2023-03-24T23:38:56.300Z,2.53
2023-03-24T23:41:28.342Z,2.70
2023-03-24T23:43:55.807Z,1.38
2023-03-24T23:46:24.083Z,0.88
2023-03-24T23:48:53.846Z,1.60
2023-03-24T23:51:21.068Z,1.98
2023-03-24T23:53:48.059Z,1.20
2023-03-24T23:56:17.204Z,1.55
2023-03-24T23:58:44.204Z,3.28
